x

Pembrey Sands Samos (03605) Weather Station

11:00 - Wed 22nd Oct 2014 All times are BST. 1 hours from GMT.

  • Wind
    13mph
  • Ar Temp 55°f
  • Sea Pressure 1027mb
  • Pembrey Sands Samos
  • Pembrey Sands Samos

More Historic Weather Station data

Upgrade to MSW Pro to gain access to the past 30 days of data for over 8000 Wavebouys and Weather Stations around the globe.

Join Pro

Comparision Forecast

View Surf forecast
   
Qua 10/22 11:00 13
mph
1027mb 55f
10:00 11
mph
1027mb 54f
9:00 13
mph
1027mb 54f
8:00 16
mph
1027mb 53f
7:00 19
mph
1027mb 53f
6:00 18
mph
1027mb 52f
5:00 19
mph
1026mb 51f
4:00 19
mph
1027mb 51f
3:00 18
mph
1027mb 51f
2:00 16
mph
1026mb 49f
1:00 14
mph
1026mb 49f
12:00 24 31 mph 1025mb 50f
Ter 10/21 11:00 19
mph
1024mb 50f
10:00 18
mph
1024mb 50f
9:00 13 29 mph 1023mb 49f
8:00 23 34 mph 1022mb 51f
7:00 28 44 mph 1020mb 50f
6:00 33 64 mph 1019mb 51f
5:00 36 54 mph 1017mb 53f
4:00 38 56 mph 1016mb 53f
3:00 41 54 mph 1015mb 55f
2:00 38 55 mph 1014mb 55f
1:00 38 53 mph 1012mb 55f
12:00 34 47 mph 1011mb 55f
11:00 34 45 mph 1010mb 53f
10:00 32 47 mph 1009mb 53f
9:00 34 44 mph 1007mb 52f
8:00 28 47 mph 1006mb 52f
7:00 37 48 mph 1004mb 54f
6:00 31 49 mph 1002mb 57f
5:00 37
mph
1002mb 59f
4:00 46 60 mph 1001mb 58f
3:00 44 55 mph 1003mb 58f
2:00 41 54 mph 1005mb 57f
1:00 39 49 mph 1007mb 58f
12:00 41 52 mph 1008mb 58f
Seg 10/20 11:00 37 48 mph 1009mb 57f
10:00 30 37 mph 1010mb 58f
9:00 30 37 mph 1011mb 58f
8:00 25 40 mph 1012mb 56f
7:00 28 33 mph 1013mb 58f
6:00 28 32 mph 1013mb 58f
5:00 25 33 mph 1013mb 58f
4:00 25 31 mph 1014mb 58f
3:00 26 31 mph 1014mb 58f
2:00 24 34 mph 1015mb 57f
1:00 17
mph
1015mb 58f
12:00 22
mph
1016mb 58f
11:00 22 36 mph 1016mb 57f
10:00 25 32 mph 1016mb 58f
9:00 24 31 mph 1016mb 58f
8:00 26 34 mph 1016mb 56f
7:00 17
mph
1016mb 58f
6:00 17
mph
1016mb 57f
5:00 21 31 mph 1016mb 57f
4:00 22 29 mph 1016mb 58f
3:00 19
mph
1016mb 57f
2:00 18
mph
1016mb 57f
1:00 18
mph
1016mb 57f
12:00 19 29 mph 1016mb 58f
Dom 10/19 11:00 22 31 mph 1015mb 58f
10:00 28 38 mph 1015mb 58f
9:00 33 43 mph 1014mb 59f
8:00 36 43 mph 1013mb 59f
7:00 32 39 mph 1013mb 59f
6:00 33 41 mph 1013mb 59f
5:00 30 40 mph 1013mb 60f
4:00 29 41 mph 1012mb 60f
3:00 33 43 mph 1012mb 61f
2:00 32 41 mph 1012mb 61f
1:00 34 44 mph 1012mb 61f
12:00 36 43 mph 1012mb 61f
11:00 36 44 mph 1011mb 60f
10:00 33 39 mph 1010mb 61f
9:00 30 37 mph 1010mb 60f
8:00 30 38 mph 1010mb 60f
7:00 29 38 mph 1009mb 60f
6:00 31 38 mph 1009mb 60f
5:00 30 38 mph 1009mb 60f
4:00 30 36 mph 1009mb 61f
3:00 28 37 mph 1009mb 61f
2:00 28 34 mph 1009mb 61f
1:00 26 36 mph 1009mb 61f
12:00 29 33 mph 1009mb 61f
Sáb 10/18 11:00 29 37 mph 1009mb 61f
10:00 29 38 mph 1009mb 62f
9:00 29 34 mph 1008mb 62f
8:00 29 36 mph 1008mb 62f
7:00 26 36 mph 1008mb 62f
6:00 26 32 mph 1007mb 62f
5:00 28 34 mph 1007mb 62f
4:00 30 39 mph 1007mb 63f
3:00 29 34 mph 1007mb 63f
2:00 25 32 mph 1007mb 62f
1:00 23 32 mph 1006mb 62f
12:00 28 37 mph 1006mb 62f